Time;durP1;ratioP1;P1;durP2;ratioP2;P2;SDS_P1;SDS_P2;PMS_P1;PMS_P2;Temp;Humidity;BMP_temperature;BMP_pressure;BME280_temperature;BME280_humidity;BME280_pressure;Samples;Min_cycle;Max_cycle;Signal;HPM_P1;HPM_P2
2022/12/02 00:02:38;;;;;;;33.87;17.50;;;1.60;99.90;;;;;;8368955;28;20198;-78
2022/12/02 00:06:39;;;;;;;28.70;16.33;;;1.50;99.90;;;;;;8371040;28;20315;-79
2022/12/02 00:10:42;;;;;;;26.87;17.03;;;1.50;99.90;;;;;;8365406;28;20182;-78
2022/12/02 00:14:43;;;;;;;34.70;19.83;;;1.50;99.90;;;;;;8364488;28;20177;-79
2022/12/02 00:18:44;;;;;;;42.73;21.70;;;1.50;99.90;;;;;;8362933;28;20185;-78
2022/12/02 00:22:45;;;;;;;42.50;22.97;;;1.50;99.90;;;;;;8366680;28;20202;-79
2022/12/02 00:26:46;;;;;;;30.87;19.20;;;1.50;99.90;;;;;;8377268;28;20281;-78
2022/12/02 00:30:46;;;;;;;40.73;21.43;;;1.60;99.90;;;;;;8373764;28;20289;-79
2022/12/02 00:34:47;;;;;;;41.37;22.00;;;1.60;99.90;;;;;;8373013;28;20211;-78
2022/12/02 00:38:48;;;;;;;41.80;21.77;;;1.60;99.90;;;;;;8370258;28;20231;-79
2022/12/02 00:42:49;;;;;;;32.90;20.43;;;1.50;99.90;;;;;;8374676;28;20204;-79
2022/12/02 00:46:50;;;;;;;35.70;20.63;;;1.50;99.90;;;;;;8368136;28;20375;-78
2022/12/02 00:50:50;;;;;;;35.83;21.37;;;1.50;99.90;;;;;;8371406;28;20268;-78
2022/12/02 00:54:51;;;;;;;33.83;20.17;;;1.40;99.90;;;;;;8376423;28;20185;-78
2022/12/02 00:58:52;;;;;;;31.23;19.80;;;1.40;99.90;;;;;;8367213;28;20216;-78
2022/12/02 01:02:53;;;;;;;34.03;20.57;;;1.40;99.90;;;;;;8375264;28;20202;-79
2022/12/02 01:06:53;;;;;;;36.37;21.33;;;1.40;99.90;;;;;;8372078;28;20258;-79
2022/12/02 01:10:56;;;;;;;30.23;20.47;;;1.50;99.90;;;;;;8376220;28;20181;-78
2022/12/02 01:14:56;;;;;;;32.83;20.33;;;1.40;99.90;;;;;;8370284;28;20182;-79
2022/12/02 01:18:57;;;;;;;35.73;21.43;;;1.40;99.90;;;;;;8371731;28;20188;-79
2022/12/02 01:22:58;;;;;;;34.57;20.80;;;1.40;99.90;;;;;;8368245;28;20402;-78
2022/12/02 01:26:59;;;;;;;37.77;23.67;;;1.40;99.90;;;;;;8370099;28;20219;-78
2022/12/02 01:30:59;;;;;;;30.30;19.43;;;1.40;99.90;;;;;;8365941;28;20244;-78
2022/12/02 01:35:00;;;;;;;28.40;17.70;;;1.40;99.90;;;;;;8370470;28;20182;-78
2022/12/02 01:39:01;;;;;;;65.37;35.00;;;1.30;99.90;;;;;;8370483;28;20186;-78
2022/12/02 01:43:02;;;;;;;37.10;21.40;;;1.30;99.90;;;;;;8366563;28;20244;-77
2022/12/02 01:47:04;;;;;;;26.77;16.80;;;1.30;99.90;;;;;;8371926;28;20394;-78
2022/12/02 01:51:06;;;;;;;44.87;23.63;;;1.20;99.90;;;;;;8375959;28;20186;-78
2022/12/02 01:55:13;;;;;;;36.07;20.30;;;1.20;99.90;;;;;;8376766;28;20185;-78
2022/12/02 01:59:15;;;;;;;26.03;16.73;;;1.20;99.90;;;;;;8367165;28;20194;-78
2022/12/02 02:03:16;;;;;;;32.33;19.47;;;1.20;99.90;;;;;;8365751;28;20229;-78
2022/12/02 02:07:17;;;;;;;35.37;20.80;;;1.20;99.90;;;;;;8370634;28;20185;-78
2022/12/02 02:11:19;;;;;;;37.93;22.10;;;1.20;99.90;;;;;;8368939;28;20181;-78
2022/12/02 02:15:21;;;;;;;35.80;20.27;;;1.20;99.90;;;;;;8371153;28;20220;-78
2022/12/02 02:19:21;;;;;;;38.13;22.17;;;1.30;99.90;;;;;;8367230;28;20181;-78
2022/12/02 02:23:25;;;;;;;34.37;20.30;;;1.30;99.90;;;;;;8375831;28;20206;-78
2022/12/02 02:27:26;;;;;;;41.33;23.70;;;1.20;99.90;;;;;;8369004;28;20205;-78
2022/12/02 02:31:27;;;;;;;36.97;20.23;;;1.30;99.90;;;;;;8369559;28;20197;-78
2022/12/02 02:35:27;;;;;;;30.17;18.87;;;1.20;99.90;;;;;;8375628;28;20203;-78
2022/12/02 02:39:29;;;;;;;27.77;17.53;;;1.30;99.90;;;;;;8369235;28;20186;-78
2022/12/02 02:43:30;;;;;;;30.87;18.53;;;1.20;99.90;;;;;;8369217;28;20204;-77
2022/12/02 02:47:31;;;;;;;26.07;17.13;;;1.20;99.90;;;;;;8369251;28;20188;-79
2022/12/02 02:51:32;;;;;;;24.87;16.63;;;1.10;99.90;;;;;;8368830;28;20189;-78
2022/12/02 02:55:34;;;;;;;24.03;16.10;;;1.10;99.90;;;;;;8371141;28;20279;-78
2022/12/02 02:59:37;;;;;;;27.53;16.80;;;1.10;99.90;;;;;;8368897;28;20201;-78
2022/12/02 03:03:42;;;;;;;29.53;17.93;;;1.10;99.90;;;;;;8367395;28;20221;-78
2022/12/02 03:07:43;;;;;;;31.30;18.70;;;1.10;99.90;;;;;;8368741;28;20193;-78
2022/12/02 03:11:46;;;;;;;25.37;16.47;;;1.10;99.90;;;;;;8365282;28;20185;-78
2022/12/02 03:15:48;;;;;;;23.87;15.90;;;1.10;99.90;;;;;;8367413;28;20192;-77
2022/12/02 03:19:49;;;;;;;23.87;16.03;;;1.00;99.90;;;;;;8368428;28;20207;-79
2022/12/02 03:23:52;;;;;;;23.50;16.17;;;1.00;99.90;;;;;;8367150;28;20205;-78
2022/12/02 03:27:52;;;;;;;27.47;17.20;;;1.00;99.90;;;;;;8364086;28;20329;-77
2022/12/02 03:31:54;;;;;;;23.97;16.50;;;1.00;99.90;;;;;;8364726;28;20197;-78
2022/12/02 03:35:55;;;;;;;37.43;24.10;;;1.00;99.90;;;;;;8365209;28;20173;-77
2022/12/02 03:39:56;;;;;;;27.37;19.13;;;1.00;99.90;;;;;;8366137;28;20193;-79
2022/12/02 03:43:58;;;;;;;26.50;17.10;;;1.00;99.90;;;;;;8364112;28;20232;-79
2022/12/02 03:47:59;;;;;;;26.93;18.30;;;1.00;99.90;;;;;;8365977;28;20176;-78
2022/12/02 03:52:00;;;;;;;25.87;18.47;;;1.00;99.90;;;;;;8369021;28;20227;-78
2022/12/02 03:56:06;;;;;;;27.17;16.93;;;1.00;99.90;;;;;;8367216;28;20178;-78
2022/12/02 04:00:10;;;;;;;28.77;17.17;;;0.90;99.90;;;;;;8378827;28;20197;-79
2022/12/02 04:04:10;;;;;;;24.47;16.93;;;1.00;99.90;;;;;;8372684;28;20225;-78
2022/12/02 04:08:11;;;;;;;29.90;19.00;;;1.00;99.90;;;;;;8372088;28;20185;-78
2022/12/02 04:12:12;;;;;;;27.83;18.80;;;1.00;99.90;;;;;;8378008;28;20192;-79
2022/12/02 04:16:13;;;;;;;29.50;18.83;;;1.00;99.90;;;;;;8372470;28;20185;-78
2022/12/02 04:20:13;;;;;;;30.50;20.10;;;1.00;99.90;;;;;;8375233;28;20182;-78
2022/12/02 04:24:14;;;;;;;35.17;21.23;;;1.00;99.90;;;;;;8375092;28;20223;-78
2022/12/02 04:28:15;;;;;;;35.20;20.60;;;1.00;99.90;;;;;;8376411;28;20210;-78
2022/12/02 04:32:17;;;;;;;32.50;20.27;;;1.00;99.90;;;;;;8375346;28;20201;-78
2022/12/02 04:36:17;;;;;;;30.93;19.13;;;0.90;99.90;;;;;;8357379;28;20256;-78
2022/12/02 04:40:18;;;;;;;29.83;18.43;;;0.90;99.90;;;;;;8373169;28;20272;-78
2022/12/02 04:44:19;;;;;;;29.40;17.73;;;0.90;99.90;;;;;;8369916;28;20558;-79
2022/12/02 04:48:20;;;;;;;31.57;18.33;;;0.90;99.90;;;;;;8369534;28;20181;-79
2022/12/02 04:52:20;;;;;;;37.43;20.33;;;0.90;99.90;;;;;;8372532;28;20191;-78
2022/12/02 04:56:21;;;;;;;32.33;20.20;;;0.90;99.90;;;;;;8373759;28;20189;-79
2022/12/02 05:00:22;;;;;;;31.33;20.40;;;0.90;99.90;;;;;;8370873;28;20262;-78
2022/12/02 05:04:23;;;;;;;35.43;20.40;;;0.90;99.90;;;;;;8376356;28;20251;-79
2022/12/02 05:08:24;;;;;;;33.13;19.60;;;0.90;99.90;;;;;;8373446;28;20188;-78
2022/12/02 05:12:24;;;;;;;36.83;21.60;;;0.80;99.90;;;;;;8376392;28;20224;-78
2022/12/02 05:16:25;;;;;;;32.87;20.00;;;0.80;99.90;;;;;;8372980;28;20251;-79
2022/12/02 05:20:26;;;;;;;27.27;16.53;;;0.90;1.00;;;;;;8374937;28;20227;-79
2022/12/02 05:24:27;;;;;;;33.00;20.70;;;0.80;25.10;;;;;;8379183;28;20490;-78
2022/12/02 05:28:28;;;;;;;37.73;21.03;;;0.80;1.00;;;;;;8374667;28;20174;-79
2022/12/02 05:32:28;;;;;;;32.07;20.37;;;0.80;1.00;;;;;;8368976;28;20222;-78
2022/12/02 05:36:29;;;;;;;36.83;23.23;;;0.90;99.90;;;;;;8371524;28;20182;-78
2022/12/02 05:40:31;;;;;;;33.67;20.47;;;0.80;1.00;;;;;;8355776;28;20670;-78
2022/12/02 05:44:33;;;;;;;27.17;16.83;;;0.80;99.90;;;;;;8376126;28;20226;-79
2022/12/02 05:48:34;;;;;;;31.83;19.00;;;0.80;99.90;;;;;;8368576;28;20236;-79
2022/12/02 05:52:35;;;;;;;29.43;18.67;;;0.80;99.90;;;;;;8373762;28;20185;-79
2022/12/02 05:56:36;;;;;;;33.40;20.83;;;0.80;99.90;;;;;;8368877;28;20310;-78
2022/12/02 06:00:37;;;;;;;31.60;19.63;;;0.80;99.90;;;;;;8367735;28;20200;-79
2022/12/02 06:04:37;;;;;;;27.57;17.10;;;0.80;99.90;;;;;;8368087;28;20224;-79
2022/12/02 06:08:38;;;;;;;29.20;17.03;;;0.80;99.90;;;;;;8369110;28;20181;-78
2022/12/02 06:12:39;;;;;;;27.60;18.13;;;0.80;99.90;;;;;;8368223;28;20181;-78
2022/12/02 06:16:44;;;;;;;35.87;19.87;;;0.80;99.90;;;;;;8376091;28;20192;-79
2022/12/02 06:20:49;;;;;;;70.87;29.07;;;0.80;99.90;;;;;;8370507;28;20223;-78
2022/12/02 06:24:52;;;;;;;64.93;32.13;;;0.80;99.90;;;;;;8372325;28;20193;-79
2022/12/02 06:29:01;;;;;;;55.90;31.47;;;0.80;99.90;;;;;;8384309;28;20397;-78
2022/12/02 06:33:02;;;;;;;132.07;77.53;;;0.80;99.90;;;;;;8376885;28;20185;-78
2022/12/02 06:37:29;;;;;;;60.23;31.27;;;0.80;99.90;;;;;;8369659;28;20178;-78
2022/12/02 06:41:35;;;;;;;53.37;27.70;;;0.80;99.90;;;;;;8366961;28;20193;-78
2022/12/02 06:45:35;;;;;;;39.53;22.17;;;0.80;99.90;;;;;;8368328;28;20232;-78
2022/12/02 06:49:38;;;;;;;40.60;22.13;;;0.80;99.90;;;;;;8367308;28;20614;-78
2022/12/02 06:53:40;;;;;;;35.20;20.80;;;0.70;99.90;;;;;;8368297;28;20220;-78
2022/12/02 06:57:41;;;;;;;60.63;25.17;;;0.80;99.90;;;;;;8372934;28;20263;-78
2022/12/02 07:01:43;;;;;;;34.57;19.40;;;0.70;99.90;;;;;;8369339;28;20277;-77
2022/12/02 07:05:44;;;;;;;49.60;23.77;;;0.70;99.90;;;;;;8368953;28;20213;-78
2022/12/02 07:09:47;;;;;;;37.77;20.37;;;0.70;99.90;;;;;;8366676;28;20181;-78
2022/12/02 07:13:48;;;;;;;38.10;20.97;;;0.70;99.90;;;;;;8368935;28;20208;-78
2022/12/02 07:17:49;;;;;;;36.13;18.93;;;0.70;76.50;;;;;;8368082;28;20523;-78
2022/12/02 07:21:50;;;;;;;35.33;19.93;;;0.70;16.60;;;;;;8367986;28;20216;-78
2022/12/02 07:25:53;;;;;;;40.87;21.17;;;0.60;1.00;;;;;;8369043;28;20213;-80
2022/12/02 07:29:55;;;;;;;37.50;19.93;;;0.60;1.00;;;;;;8371237;28;20193;-78
2022/12/02 07:33:56;;;;;;;35.33;19.83;;;0.60;1.00;;;;;;8376503;28;20181;-78
2022/12/02 07:37:57;;;;;;;39.07;20.70;;;0.50;1.00;;;;;;8370814;28;20185;-79
2022/12/02 07:41:57;;;;;;;35.37;17.83;;;0.50;1.00;;;;;;8370399;28;20178;-78
2022/12/02 07:45:59;;;;;;;46.80;23.77;;;0.50;1.00;;;;;;8375432;28;20233;-77
2022/12/02 07:49:59;;;;;;;39.70;21.67;;;0.50;1.00;;;;;;8377107;28;20395;-78
2022/12/02 07:54:00;;;;;;;30.60;18.10;;;0.50;99.90;;;;;;8373630;28;20312;-78
2022/12/02 07:58:01;;;;;;;36.37;18.90;;;0.50;99.90;;;;;;8382034;28;20201;-78
2022/12/02 08:02:02;;;;;;;33.83;16.50;;;0.50;99.90;;;;;;8380344;28;20193;-79
2022/12/02 08:06:03;;;;;;;28.17;15.30;;;0.40;99.90;;;;;;8372323;28;20198;-79
2022/12/02 08:10:05;;;;;;;25.20;14.83;;;0.50;99.90;;;;;;8380097;28;20205;-78
2022/12/02 08:14:06;;;;;;;32.27;18.20;;;0.50;99.90;;;;;;8377049;28;20181;-78
2022/12/02 08:18:06;;;;;;;36.43;18.63;;;0.50;99.90;;;;;;8370370;28;20300;-78
2022/12/02 08:22:07;;;;;;;29.80;15.43;;;0.50;99.90;;;;;;8369328;28;20185;-77
2022/12/02 08:26:08;;;;;;;30.10;16.17;;;0.50;99.90;;;;;;8372293;28;20177;-78
2022/12/02 08:30:11;;;;;;;22.80;13.17;;;0.50;99.90;;;;;;8371656;28;20197;-77
2022/12/02 08:34:12;;;;;;;34.60;18.07;;;0.50;99.90;;;;;;8376401;28;20230;-78
2022/12/02 08:38:12;;;;;;;24.00;14.07;;;0.50;99.90;;;;;;8374752;28;20178;-78
2022/12/02 08:42:13;;;;;;;33.03;17.33;;;0.50;99.90;;;;;;8366932;28;20188;-78
2022/12/02 08:46:14;;;;;;;28.67;16.33;;;0.50;99.90;;;;;;8373438;28;20188;-78
2022/12/02 08:50:15;;;;;;;29.30;16.30;;;0.60;99.90;;;;;;8370132;28;20185;-78
2022/12/02 08:54:16;;;;;;;28.93;15.60;;;0.60;99.90;;;;;;8377855;28;20428;-78
2022/12/02 08:58:17;;;;;;;30.10;18.10;;;0.50;99.90;;;;;;8372478;28;20296;-77
2022/12/02 09:02:18;;;;;;;28.40;18.33;;;0.50;99.90;;;;;;8372788;28;20210;-79
2022/12/02 09:06:19;;;;;;;31.53;18.20;;;0.50;99.90;;;;;;8378381;28;20196;-78
2022/12/02 09:10:19;;;;;;;35.30;21.30;;;0.50;99.90;;;;;;8372498;28;20188;-78
2022/12/02 09:14:20;;;;;;;37.30;20.70;;;0.50;99.90;;;;;;8372897;28;20182;-78
2022/12/02 09:18:21;;;;;;;34.13;19.93;;;0.40;99.90;;;;;;8369404;28;20204;-78
2022/12/02 09:22:22;;;;;;;34.80;19.60;;;0.50;99.90;;;;;;8378071;28;20189;-78
2022/12/02 09:26:23;;;;;;;41.83;22.83;;;0.50;99.90;;;;;;8373424;28;20185;-78
2022/12/02 09:30:23;;;;;;;29.67;17.00;;;0.50;99.90;;;;;;8378659;28;20193;-79
2022/12/02 09:34:24;;;;;;;27.77;16.23;;;0.50;99.90;;;;;;8376268;28;20197;-78
2022/12/02 09:38:29;;;;;;;25.33;15.83;;;0.50;99.90;;;;;;8375791;28;20211;-78
2022/12/02 09:42:32;;;;;;;40.53;25.23;;;0.40;99.90;;;;;;8376847;28;20231;-78
2022/12/02 09:46:33;;;;;;;24.97;16.17;;;0.40;99.90;;;;;;8353160;28;20343;-78
2022/12/02 09:50:34;;;;;;;34.63;21.73;;;0.40;99.90;;;;;;8371922;28;20211;-78
2022/12/02 09:54:35;;;;;;;26.37;16.13;;;0.40;1.00;;;;;;8369906;28;20186;-78
2022/12/02 09:58:37;;;;;;;30.00;17.07;;;0.40;99.90;;;;;;8368234;28;20300;-78
2022/12/02 10:02:40;;;;;;;28.20;17.57;;;0.40;99.90;;;;;;8370312;28;20309;-78
2022/12/02 10:06:42;;;;;;;29.80;17.40;;;0.50;99.90;;;;;;8375669;28;20185;-78
2022/12/02 10:10:44;;;;;;;38.53;22.50;;;0.60;99.90;;;;;;8370541;28;20194;-78
2022/12/02 10:14:48;;;;;;;32.87;17.37;;;0.60;99.90;;;;;;8367457;28;20412;-78
2022/12/02 10:18:49;;;;;;;23.37;14.60;;;0.60;99.90;;;;;;8372546;28;20190;-79
2022/12/02 10:23:08;;;;;;;28.17;15.80;;;0.60;99.90;;;;;;8370202;28;20267;-78
2022/12/02 10:27:31;;;;;;;30.00;17.00;;;0.50;99.90;;;;;;8370216;28;20188;-79
2022/12/02 10:31:32;;;;;;;28.97;16.57;;;0.50;99.90;;;;;;8376458;28;20240;-78
2022/12/02 10:35:43;;;;;;;34.40;18.93;;;0.50;99.90;;;;;;8375384;28;20203;-78
2022/12/02 21:04:08;;;;;;;54.90;23.67;;;-0.90;7.60;;;;;;8357151;27;20550;-71
2022/12/02 21:08:09;;;;;;;49.40;22.33;;;-0.90;99.90;;;;;;8370342;28;20354;-70
2022/12/02 21:12:11;;;;;;;61.57;27.50;;;-0.80;80.70;;;;;;8354803;28;20176;-69
2022/12/02 21:16:12;;;;;;;53.00;23.83;;;-0.80;99.90;;;;;;8352708;28;20188;-69
2022/12/02 21:20:17;;;;;;;37.07;19.87;;;-0.80;1.00;;;;;;8355125;28;20483;-70
2022/12/02 21:24:18;;;;;;;47.83;24.83;;;-0.80;1.00;;;;;;8353100;28;20623;-70
2022/12/02 21:28:19;;;;;;;63.70;33.37;;;-0.80;1.00;;;;;;8349028;28;20200;-70
2022/12/02 21:32:20;;;;;;;85.17;37.43;;;-0.70;1.00;;;;;;8348303;28;20185;-69
2022/12/02 21:36:21;;;;;;;50.87;24.67;;;-0.70;1.00;;;;;;8367525;28;20185;-70
2022/12/02 21:40:22;;;;;;;57.77;26.33;;;-0.70;99.90;;;;;;8354035;28;20186;-70
2022/12/02 21:44:23;;;;;;;47.27;24.43;;;-0.70;99.90;;;;;;8367334;28;20185;-70
2022/12/02 21:48:24;;;;;;;49.03;24.57;;;-0.70;99.90;;;;;;8348769;28;20248;-70
2022/12/02 21:52:25;;;;;;;42.70;21.03;;;-0.80;99.90;;;;;;8346893;28;20194;-70
2022/12/02 21:56:26;;;;;;;48.17;23.90;;;-0.80;1.00;;;;;;8351300;28;20219;-70
2022/12/02 22:00:27;;;;;;;41.97;21.63;;;-0.70;99.90;;;;;;8352191;28;20223;-70
2022/12/02 22:04:30;;;;;;;43.47;24.37;;;-0.70;99.90;;;;;;8350190;28;20179;-70
2022/12/02 22:08:30;;;;;;;52.17;25.70;;;-0.80;99.90;;;;;;8354889;28;20173;-70
2022/12/02 22:12:31;;;;;;;45.80;23.33;;;-0.80;99.90;;;;;;8348966;28;20185;-70
2022/12/02 22:16:32;;;;;;;47.67;23.53;;;-0.80;99.90;;;;;;8332042;28;20193;-70
2022/12/02 22:20:33;;;;;;;37.87;19.73;;;-0.80;99.90;;;;;;8325831;28;20213;-69
2022/12/02 22:24:34;;;;;;;40.00;20.40;;;-0.80;99.90;;;;;;8327134;28;20178;-69
2022/12/02 22:28:35;;;;;;;46.40;22.80;;;-0.70;99.90;;;;;;8329048;28;20186;-69
2022/12/02 22:32:35;;;;;;;49.30;22.53;;;-0.80;99.90;;;;;;8327868;28;20194;-69
2022/12/02 22:36:36;;;;;;;42.03;21.10;;;-0.90;99.90;;;;;;8327979;28;20429;-70
2022/12/02 22:40:37;;;;;;;50.40;23.17;;;-0.90;1.00;;;;;;8323787;28;20209;-70
2022/12/02 22:44:38;;;;;;;40.13;20.47;;;-0.90;1.00;;;;;;8327709;28;20232;-70
2022/12/02 22:48:39;;;;;;;36.23;19.57;;;-0.90;1.00;;;;;;8321903;28;20183;-70
2022/12/02 22:52:40;;;;;;;40.73;20.27;;;-0.90;1.00;;;;;;8327977;28;20216;-70
2022/12/02 22:56:42;;;;;;;51.53;25.00;;;-0.90;1.00;;;;;;8328170;28;20272;-70
2022/12/02 23:00:43;;;;;;;41.33;21.87;;;-0.90;1.00;;;;;;8317533;28;20273;-70
2022/12/02 23:04:44;;;;;;;45.27;23.07;;;-0.90;29.90;;;;;;8321474;28;20213;-70
2022/12/02 23:08:44;;;;;;;44.93;22.17;;;-0.90;99.90;;;;;;8318889;28;20183;-70
2022/12/02 23:12:45;;;;;;;40.37;21.97;;;-0.90;53.30;;;;;;8327009;28;20185;-70
2022/12/02 23:16:46;;;;;;;32.43;19.70;;;-0.90;99.90;;;;;;8334307;28;20194;-70
2022/12/02 23:20:47;;;;;;;41.47;20.80;;;-0.90;99.90;;;;;;8329853;28;20208;-70
2022/12/02 23:24:48;;;;;;;42.90;21.93;;;-0.90;99.90;;;;;;8324538;28;20174;-70
2022/12/02 23:28:49;;;;;;;44.53;23.43;;;-0.90;99.90;;;;;;8329143;28;20179;-71
2022/12/02 23:32:49;;;;;;;44.03;20.47;;;-0.90;99.90;;;;;;8329929;28;20215;-69
2022/12/02 23:36:50;;;;;;;45.50;23.20;;;-1.00;99.90;;;;;;8324332;28;20203;-69
2022/12/02 23:40:52;;;;;;;47.37;22.20;;;-1.00;99.90;;;;;;8326955;28;20234;-69
2022/12/02 23:44:53;;;;;;;47.80;23.50;;;-0.90;1.00;;;;;;8321805;28;20185;-68
2022/12/02 23:48:53;;;;;;;40.03;22.90;;;-1.00;1.00;;;;;;8328149;28;20428;-69
2022/12/02 23:52:54;;;;;;;35.73;19.67;;;-1.00;1.00;;;;;;8328567;28;20187;-69
2022/12/02 23:56:55;;;;;;;43.20;21.70;;;-1.00;1.00;;;;;;8326669;28;20210;-68
